Sevierville, Tennessee
Current Conditions -  °F | °C
As of 9:35 PM on Thursday 20 Nov 2014 (Local Time) from KGKT Reporting Station
NA  
Wind Chill: 40°   Ceiling: NA
Heat Index: 43°   Visibility: 10mi
Dew Point: 19°   Wind: 5mph
Humidity: 39%   Direction: 270°W
Pressure: 30.22"   Gusts: NA
Location:  35.87°N, 83.57°W
Report Text: KGKT 210235Z AUTO 27004KT 10SM 06/M07 A3022 RMK
Loading
Personal Weather Stations






























Interactive Weather Map New forecast layout! Learn more

10-Day Weather Forecast

Advertisements
Track Severe Weather on mobile